PWSweather.com
Personal Weather Stations
Station Observations
CALONGE
CalongeES 17251

CalongeES 17251

Lat: 41.85972222, Lon: 3.077777778

Elevation: 16

Station Type: Oregon WMR928N

www.calonge-meteoweb.com

High Low Average
Temperature 64.9°F18.3°C 52.2°F11.2°C 57.4°F14.1°C
Dew Point 54.6°F12.6°C 37.3°F2.9°C 51.1°F10.6°C
Winds 8.8 mph 14.2 kmh Calm Calm 2.0 mph SSE3.2 kmh SSE
Wind Gusts 13.2 mph21.2 kmh -- 5.0 mph8.0 kmh
Humidity 94% 36% 81%
Pressure 29.92 in1013.2 mb 29.83 in1010.2 mb -
Precipitation 0.73 in18.5 mm - -
Hour Temp Dew Point Humidity Winds Wind Gusts Pressure Precip Precip Rate Daily Precip Total
02:00 AM 64.9°F18.3°C 37.3°F2.9°C 36% 7.0 mph NW11.3 kmh NW 10.8 mph17.4 kmh 29.86 in1011.2 mb 0.00 in0.0 mm 0.00 in0.0 mm 0.00 in0.0 mm
02:15 AM 64.9°F18.3°C 37.3°F2.9°C 36% 7.0 mph NW11.3 kmh NW 10.5 mph16.9 kmh 29.86 in1011.2 mb 0.00 in0.0 mm 0.00 in0.0 mm 0.00 in0.0 mm
02:30 AM 64.9°F18.3°C 37.3°F2.9°C 36% 5.9 mph NW9.5 kmh NW 10.8 mph17.4 kmh 29.86 in1011.2 mb 0.00 in0.0 mm 0.00 in0.0 mm 0.00 in0.0 mm
02:45 AM 64.9°F18.3°C 37.3°F2.9°C 36% 4.1 mph NW6.6 kmh NW 11.4 mph18.3 kmh 29.86 in1011.2 mb 0.00 in0.0 mm 0.00 in0.0 mm 0.00 in0.0 mm
03:00 AM 64.8°F18.2°C 38.5°F3.6°C 38% 2.9 mph NW4.7 kmh NW 9.4 mph15.1 kmh 29.86 in1011.2 mb 0.00 in0.0 mm 0.00 in0.0 mm 0.00 in0.0 mm
03:15 AM 63.7°F17.6°C 42.5°F5.8°C 46% 6.4 mph NW10.3 kmh NW 8.2 mph13.2 kmh 29.86 in1011.2 mb 0.00 in0.0 mm 0.00 in0.0 mm 0.00 in0.0 mm
03:30 AM 62.8°F17.1°C 43.9°F6.6°C 50% 4.1 mph NNW6.6 kmh NNW 8.2 mph13.2 kmh 29.86 in1011.2 mb 0.00 in0.0 mm 0.00 in0.0 mm 0.00 in0.0 mm
03:45 AM 61.7°F16.5°C 44.9°F7.2°C 54% 3.5 mph NW5.6 kmh NW 7.6 mph12.2 kmh 29.83 in1010.2 mb 0.00 in0.0 mm 0.00 in0.0 mm 0.00 in0.0 mm
04:00 AM 60.6°F15.9°C 48.4°F9.1°C 64% 3.5 mph NW5.6 kmh NW 8.2 mph13.2 kmh 29.83 in1010.2 mb 0.00 in0.0 mm 0.00 in0.0 mm 0.00 in0.0 mm
04:15 AM 59.7°F15.4°C 48.7°F9.3°C 67% 8.2 mph NW13.2 kmh NW 10.5 mph16.9 kmh 29.83 in1010.2 mb 0.00 in0.0 mm 0.00 in0.0 mm 0.00 in0.0 mm
04:30 AM 59.4°F15.2°C 49.2°F9.6°C 69% 7.0 mph NNW11.3 kmh NNW 10.0 mph16.1 kmh 29.83 in1010.2 mb 0.01 in0.3 mm 0.04 in1.0 mm 0.01 in0.3 mm
04:45 AM 58.5°F14.7°C 49.8°F9.9°C 73% 2.9 mph WNW4.7 kmh WNW 10.8 mph17.4 kmh 29.83 in1010.2 mb 0.02 in0.5 mm 0.04 in1.0 mm 0.02 in0.5 mm
05:00 AM 57.9°F14.4°C 50.4°F10.2°C 76% Calm Calm 10.0 mph16.1 kmh 29.83 in1010.2 mb 0.02 in0.5 mm 0.00 in0.0 mm 0.02 in0.5 mm
05:15 AM 57.9°F14.4°C 50.4°F10.2°C 76% Calm Calm 3.5 mph5.6 kmh 29.83 in1010.2 mb 0.02 in0.5 mm 0.00 in0.0 mm 0.02 in0.5 mm
05:30 AM 57.9°F14.4°C 51.4°F10.8°C 79% 4.1 mph NW6.6 kmh NW 8.8 mph14.2 kmh 29.83 in1010.2 mb 0.02 in0.5 mm 0.00 in0.0 mm 0.02 in0.5 mm
05:45 AM 57.9°F14.4°C 51.8°F11.0°C 80% Calm Calm 7.6 mph12.2 kmh 29.83 in1010.2 mb 0.01 in0.3 mm 0.00 in0.0 mm 0.02 in0.5 mm
06:00 AM 58.1°F14.5°C 52.3°F11.3°C 81% Calm Calm 7.0 mph11.3 kmh 29.83 in1010.2 mb 0.00 in0.0 mm 0.00 in0.0 mm 0.02 in0.5 mm
06:15 AM 58.5°F14.7°C 52.6°F11.4°C 81% Calm Calm -- 29.83 in1010.2 mb 0.00 in0.0 mm 0.00 in0.0 mm 0.02 in0.5 mm
06:30 AM 58.6°F14.8°C 52.8°F11.6°C 81% Calm Calm -- 29.83 in1010.2 mb 0.00 in0.0 mm 0.00 in0.0 mm 0.02 in0.5 mm
06:45 AM 58.6°F14.8°C 52.5°F11.4°C 80% Calm Calm -- 29.83 in1010.2 mb 0.00 in0.0 mm 0.00 in0.0 mm 0.02 in0.5 mm
07:00 AM 59.0°F15.0°C 52.1°F11.2°C 78% 6.4 mph NW10.3 kmh NW 8.2 mph13.2 kmh 29.83 in1010.2 mb 0.00 in0.0 mm 0.00 in0.0 mm 0.02 in0.5 mm
07:15 AM 59.2°F15.1°C 52.7°F11.5°C 79% Calm Calm 8.2 mph13.2 kmh 29.83 in1010.2 mb 0.00 in0.0 mm 0.00 in0.0 mm 0.02 in0.5 mm
07:30 AM 59.5°F15.3°C 54.0°F12.2°C 82% Calm Calm -- 29.83 in1010.2 mb 0.00 in0.0 mm 0.00 in0.0 mm 0.02 in0.5 mm
07:45 AM 59.5°F15.3°C 53.0°F11.7°C 79% Calm Calm -- 29.83 in1010.2 mb 0.00 in0.0 mm 0.00 in0.0 mm 0.02 in0.5 mm
08:00 AM 59.5°F15.3°C 52.7°F11.5°C 78% Calm Calm 7.6 mph12.2 kmh 29.83 in1010.2 mb 0.02 in0.5 mm 0.03 in0.8 mm 0.05 in1.3 mm
08:15 AM 59.4°F15.2°C 52.5°F11.4°C 78% Calm Calm -- 29.83 in1010.2 mb 0.02 in0.5 mm 0.00 in0.0 mm 0.05 in1.3 mm
08:30 AM 59.2°F15.1°C 52.7°F11.5°C 79% 2.9 mph NW4.7 kmh NW 7.0 mph11.3 kmh 29.83 in1010.2 mb 0.02 in0.5 mm 0.00 in0.0 mm 0.05 in1.3 mm
08:45 AM 59.2°F15.1°C 52.7°F11.5°C 79% Calm Calm -- 29.83 in1010.2 mb 0.02 in0.5 mm 0.00 in0.0 mm 0.05 in1.3 mm
09:00 AM 59.4°F15.2°C 52.5°F11.4°C 78% Calm Calm -- 29.83 in1010.2 mb 0.00 in0.0 mm 0.00 in0.0 mm 0.05 in1.3 mm
09:15 AM 59.7°F15.4°C 53.2°F11.8°C 79% Calm Calm -- 29.86 in1011.2 mb 0.00 in0.0 mm 0.00 in0.0 mm 0.05 in1.3 mm
09:30 AM 59.9°F15.5°C 53.4°F11.9°C 79% Calm Calm -- 29.86 in1011.2 mb 0.02 in0.5 mm 0.08 in2.0 mm 0.06 in1.5 mm
09:45 AM 60.1°F15.6°C 53.9°F12.2°C 80% Calm Calm -- 29.86 in1011.2 mb 0.02 in0.5 mm 0.00 in0.0 mm 0.06 in1.5 mm
10:00 AM 60.4°F15.8°C 54.6°F12.6°C 81% Calm Calm 2.9 mph4.7 kmh 29.86 in1011.2 mb 0.02 in0.5 mm 0.00 in0.0 mm 0.07 in1.8 mm
10:15 AM 60.6°F15.9°C 54.4°F12.4°C 80% Calm Calm -- 29.86 in1011.2 mb 0.02 in0.5 mm 0.00 in0.0 mm 0.07 in1.8 mm
10:30 AM 60.4°F15.8°C 53.9°F12.2°C 79% Calm Calm -- 29.86 in1011.2 mb 0.02 in0.5 mm 0.00 in0.0 mm 0.08 in2.0 mm
10:45 AM 60.3°F15.7°C 53.7°F12.1°C 79% Calm Calm -- 29.86 in1011.2 mb 0.02 in0.5 mm 0.00 in0.0 mm 0.09 in2.3 mm
11:00 AM 60.3°F15.7°C 53.7°F12.1°C 79% Calm Calm 5.9 mph9.5 kmh 29.86 in1011.2 mb 0.04 in1.0 mm 0.03 in0.8 mm 0.11 in2.8 mm
11:15 AM 60.1°F15.6°C 54.2°F12.3°C 81% 5.3 mph W8.5 kmh W 7.0 mph11.3 kmh 29.86 in1011.2 mb 0.05 in1.3 mm 0.04 in1.0 mm 0.12 in3.0 mm
11:30 AM 58.8°F14.9°C 53.3°F11.8°C 82% 5.9 mph NNW9.5 kmh NNW 10.0 mph16.1 kmh 29.86 in1011.2 mb 0.07 in1.8 mm 0.08 in2.0 mm 0.15 in3.8 mm
11:45 AM 58.1°F14.5°C 53.0°F11.7°C 83% 4.1 mph NNW6.6 kmh NNW 10.8 mph17.4 kmh 29.89 in1012.2 mb 0.07 in1.8 mm 0.00 in0.0 mm 0.16 in4.1 mm
12:00 PM 57.4°F14.1°C 53.5°F11.9°C 87% 6.4 mph NW10.3 kmh NW 13.2 mph21.2 kmh 29.86 in1011.2 mb 0.06 in1.5 mm 0.00 in0.0 mm 0.17 in4.3 mm
12:15 PM 57.0°F13.9°C 53.2°F11.8°C 87% 8.8 mph NW14.2 kmh NW 11.4 mph18.3 kmh 29.86 in1011.2 mb 0.06 in1.5 mm 0.00 in0.0 mm 0.17 in4.3 mm
12:30 PM 56.7°F13.7°C 52.8°F11.6°C 87% 7.6 mph NW12.2 kmh NW 13.2 mph21.2 kmh 29.86 in1011.2 mb 0.02 in0.5 mm 0.00 in0.0 mm 0.17 in4.3 mm
12:45 PM 56.5°F13.6°C 52.7°F11.5°C 87% 6.4 mph NW10.3 kmh NW 12.6 mph20.3 kmh 29.86 in1011.2 mb 0.01 in0.3 mm 0.00 in0.0 mm 0.17 in4.3 mm
01:00 PM 56.5°F13.6°C 53.0°F11.7°C 88% 7.6 mph NW12.2 kmh NW 10.0 mph16.1 kmh 29.86 in1011.2 mb 0.02 in0.5 mm 0.01 in0.3 mm 0.19 in4.8 mm
01:15 PM 56.3°F13.5°C 53.4°F11.9°C 90% 4.7 mph NW7.6 kmh NW 10.0 mph16.1 kmh 29.89 in1012.2 mb 0.05 in1.3 mm 0.12 in3.0 mm 0.22 in5.6 mm
01:30 PM 55.9°F13.3°C 53.0°F11.7°C 90% 5.9 mph NW9.5 kmh NW 10.0 mph16.1 kmh 29.89 in1012.2 mb 0.09 in2.3 mm 0.16 in4.1 mm 0.26 in6.6 mm
01:45 PM 55.8°F13.2°C 52.9°F11.6°C 90% 7.0 mph NW11.3 kmh NW 10.5 mph16.9 kmh 29.89 in1012.2 mb 0.14 in3.6 mm 0.20 in5.1 mm 0.31 in7.9 mm
02:00 PM 55.6°F13.1°C 52.7°F11.5°C 90% 7.6 mph NW12.2 kmh NW 10.8 mph17.4 kmh 29.89 in1012.2 mb 0.17 in4.3 mm 0.04 in1.0 mm 0.35 in8.9 mm
02:15 PM 55.4°F13.0°C 52.2°F11.2°C 89% 4.7 mph NW7.6 kmh NW 10.0 mph16.1 kmh 29.89 in1012.2 mb 0.16 in4.1 mm 0.00 in0.0 mm 0.38 in9.7 mm
02:30 PM 55.4°F13.0°C 52.2°F11.2°C 89% 6.4 mph NW10.3 kmh NW 10.8 mph17.4 kmh 29.89 in1012.2 mb 0.13 in3.3 mm 0.00 in0.0 mm 0.40 in10.2 mm
02:45 PM 55.4°F13.0°C 52.5°F11.4°C 90% 4.1 mph NW6.6 kmh NW 7.6 mph12.2 kmh 29.89 in1012.2 mb 0.12 in3.0 mm 0.00 in0.0 mm 0.43 in10.9 mm
03:00 PM 55.4°F13.0°C 52.8°F11.6°C 91% 2.9 mph NW4.7 kmh NW 11.4 mph18.3 kmh 29.92 in1013.2 mb 0.11 in2.8 mm 0.00 in0.0 mm 0.46 in11.7 mm
03:15 PM 55.4°F13.0°C 52.8°F11.6°C 91% Calm Calm 8.2 mph13.2 kmh 29.92 in1013.2 mb 0.12 in3.0 mm 0.04 in1.0 mm 0.50 in12.7 mm
03:30 PM 55.4°F13.0°C 52.5°F11.4°C 90% 4.1 mph NW6.6 kmh NW 8.2 mph13.2 kmh 29.89 in1012.2 mb 0.12 in3.0 mm 0.00 in0.0 mm 0.52 in13.2 mm
03:45 PM 55.4°F13.0°C 52.8°F11.6°C 91% Calm Calm 7.6 mph12.2 kmh 29.89 in1012.2 mb 0.09 in2.3 mm 0.00 in0.0 mm 0.53 in13.5 mm
04:00 PM 55.4°F13.0°C 52.8°F11.6°C 91% 4.1 mph NW6.6 kmh NW 7.6 mph12.2 kmh 29.92 in1013.2 mb 0.07 in1.8 mm 0.00 in0.0 mm 0.54 in13.7 mm
04:15 PM 55.4°F13.0°C 52.5°F11.4°C 90% Calm Calm -- 29.89 in1012.2 mb 0.06 in1.5 mm 0.00 in0.0 mm 0.55 in14.0 mm
04:30 PM 55.6°F13.1°C 52.4°F11.3°C 89% Calm Calm -- 29.89 in1012.2 mb 0.05 in1.3 mm 0.00 in0.0 mm 0.57 in14.5 mm
04:45 PM 55.8°F13.2°C 52.6°F11.4°C 89% Calm Calm -- 29.89 in1012.2 mb 0.05 in1.3 mm 0.00 in0.0 mm 0.57 in14.5 mm
05:00 PM 55.8°F13.2°C 52.9°F11.6°C 90% Calm Calm -- 29.89 in1012.2 mb 0.04 in1.0 mm 0.00 in0.0 mm 0.57 in14.5 mm
05:15 PM 55.8°F13.2°C 52.6°F11.4°C 89% Calm Calm -- 29.89 in1012.2 mb 0.03 in0.8 mm 0.00 in0.0 mm 0.58 in14.7 mm
05:30 PM 55.8°F13.2°C 52.6°F11.4°C 89% Calm Calm 4.7 mph7.6 kmh 29.89 in1012.2 mb 0.02 in0.5 mm 0.00 in0.0 mm 0.58 in14.7 mm
05:45 PM 55.9°F13.3°C 52.7°F11.5°C 89% Calm Calm -- 29.86 in1011.2 mb 0.01 in0.3 mm 0.00 in0.0 mm 0.58 in14.7 mm
06:00 PM 55.8°F13.2°C 52.6°F11.4°C 89% Calm Calm -- 29.89 in1012.2 mb 0.02 in0.5 mm 0.01 in0.3 mm 0.59 in15.0 mm
06:15 PM 55.8°F13.2°C 52.3°F11.3°C 88% Calm Calm -- 29.89 in1012.2 mb 0.02 in0.5 mm 0.00 in0.0 mm 0.60 in15.2 mm
06:30 PM 55.4°F13.0°C 51.9°F11.1°C 88% Calm Calm -- 29.89 in1012.2 mb 0.02 in0.5 mm 0.00 in0.0 mm 0.60 in15.2 mm
06:45 PM 55.2°F12.9°C 51.7°F10.9°C 88% Calm Calm -- 29.89 in1012.2 mb 0.02 in0.5 mm 0.00 in0.0 mm 0.60 in15.2 mm
07:00 PM 55.0°F12.8°C 51.9°F11.1°C 89% Calm Calm -- 29.89 in1012.2 mb 0.01 in0.3 mm 0.00 in0.0 mm 0.60 in15.2 mm
07:15 PM 55.0°F12.8°C 51.5°F10.8°C 88% Calm Calm -- 29.89 in1012.2 mb 0.01 in0.3 mm 0.00 in0.0 mm 0.61 in15.5 mm
07:30 PM 54.9°F12.7°C 51.4°F10.8°C 88% Calm Calm -- 29.92 in1013.2 mb 0.02 in0.5 mm 0.04 in1.0 mm 0.62 in15.7 mm
07:45 PM 54.7°F12.6°C 51.2°F10.7°C 88% Calm Calm -- 29.92 in1013.2 mb 0.03 in0.8 mm 0.04 in1.0 mm 0.63 in16.0 mm
08:00 PM 54.5°F12.5°C 51.0°F10.6°C 88% Calm Calm -- 29.92 in1013.2 mb 0.03 in0.8 mm 0.00 in0.0 mm 0.63 in16.0 mm
08:15 PM 54.5°F12.5°C 51.3°F10.7°C 89% Calm Calm -- 29.92 in1013.2 mb 0.04 in1.0 mm 0.04 in1.0 mm 0.65 in16.5 mm
08:30 PM 54.3°F12.4°C 51.1°F10.6°C 89% Calm Calm -- 29.92 in1013.2 mb 0.06 in1.5 mm 0.08 in2.0 mm 0.68 in17.3 mm
08:45 PM 54.1°F12.3°C 51.3°F10.7°C 90% Calm Calm -- 29.92 in1013.2 mb 0.06 in1.5 mm 0.00 in0.0 mm 0.69 in17.5 mm
09:00 PM 54.1°F12.3°C 51.3°F10.7°C 90% Calm Calm -- 29.92 in1013.2 mb 0.06 in1.5 mm 0.00 in0.0 mm 0.70 in17.8 mm
09:15 PM 54.3°F12.4°C 51.7°F10.9°C 91% Calm Calm -- 29.92 in1013.2 mb 0.06 in1.5 mm 0.00 in0.0 mm 0.70 in17.8 mm
09:30 PM 54.3°F12.4°C 51.7°F10.9°C 91% Calm Calm -- 29.92 in1013.2 mb 0.02 in0.5 mm 0.00 in0.0 mm 0.70 in17.8 mm
09:45 PM 54.1°F12.3°C 51.9°F11.1°C 92% Calm Calm -- 29.92 in1013.2 mb 0.01 in0.3 mm 0.00 in0.0 mm 0.70 in17.8 mm
10:00 PM 54.0°F12.2°C 51.7°F10.9°C 92% Calm Calm -- 29.92 in1013.2 mb 0.00 in0.0 mm 0.00 in0.0 mm 0.70 in17.8 mm
10:15 PM 54.1°F12.3°C 52.2°F11.2°C 93% Calm Calm -- 29.92 in1013.2 mb 0.00 in0.0 mm 0.00 in0.0 mm 0.70 in17.8 mm
10:30 PM 53.6°F12.0°C 51.6°F10.9°C 93% Calm Calm -- 29.92 in1013.2 mb 0.00 in0.0 mm 0.00 in0.0 mm 0.70 in17.8 mm
10:45 PM 53.2°F11.8°C 51.3°F10.7°C 93% Calm Calm -- 29.92 in1013.2 mb 0.00 in0.0 mm 0.00 in0.0 mm 0.70 in17.8 mm
11:00 PM 53.1°F11.7°C 51.1°F10.6°C 93% Calm Calm -- 29.92 in1013.2 mb 0.01 in0.3 mm 0.01 in0.3 mm 0.73 in18.5 mm
11:15 PM 52.9°F11.6°C 51.2°F10.7°C 94% Calm Calm -- 29.92 in1013.2 mb 0.01 in0.3 mm 0.00 in0.0 mm 0.73 in18.5 mm
11:30 PM 52.5°F11.4°C 50.8°F10.4°C 94% Calm Calm -- 29.92 in1013.2 mb 0.01 in0.3 mm 0.00 in0.0 mm 0.73 in18.5 mm
11:45 PM 52.2°F11.2°C 50.5°F10.3°C 94% Calm Calm -- 29.92 in1013.2 mb 0.01 in0.3 mm 0.00 in0.0 mm 0.73 in18.5 mm